createdAt,value
2022-11-29T00:00:36.790Z,120.60
2022-11-29T00:03:03.604Z,124.22
2022-11-29T00:05:30.310Z,157.93
2022-11-29T00:07:56.940Z,147.27
2022-11-29T00:10:23.566Z,272.85
2022-11-29T00:12:50.150Z,473.47
2022-11-29T00:15:17.022Z,395.27
2022-11-29T00:17:43.609Z,572.55
2022-11-29T00:20:11.177Z,124.75
2022-11-29T00:22:37.837Z,468.60
2022-11-29T00:25:05.962Z,93.50
2022-11-29T00:27:32.972Z,269.52
2022-11-29T00:29:59.590Z,120.72
2022-11-29T00:32:26.295Z,206.73
2022-11-29T00:34:52.897Z,136.15
2022-11-29T00:37:19.466Z,121.60
2022-11-29T00:39:46.029Z,183.90
2022-11-29T00:42:12.595Z,119.57
2022-11-29T00:44:39.173Z,130.90
2022-11-29T00:47:05.785Z,107.85
2022-11-29T00:49:32.434Z,123.53
2022-11-29T00:51:59.645Z,274.70
2022-11-29T00:54:26.390Z,144.77
2022-11-29T00:56:53.078Z,160.13
2022-11-29T00:59:19.737Z,97.15
2022-11-29T01:01:46.414Z,146.77
2022-11-29T01:04:13.093Z,100.95
2022-11-29T01:06:39.683Z,117.60
2022-11-29T01:09:06.435Z,102.05
2022-11-29T01:11:33.308Z,208.25
2022-11-29T01:14:01.786Z,115.27
2022-11-29T01:16:30.807Z,98.20
2022-11-29T01:18:57.469Z,115.28
2022-11-29T01:21:24.713Z,133.93
2022-11-29T01:23:52.430Z,324.75
2022-11-29T01:26:25.342Z,93.40
2022-11-29T01:28:53.954Z,97.13
2022-11-29T01:31:27.096Z,104.07
2022-11-29T01:33:59.092Z,119.00
2022-11-29T01:36:26.842Z,121.88
2022-11-29T01:38:54.153Z,355.63
2022-11-29T01:41:23.969Z,161.73
2022-11-29T01:44:04.158Z,145.85
2022-11-29T01:46:34.256Z,186.55
2022-11-29T01:49:25.356Z,135.05
2022-11-29T01:51:57.910Z,91.57
2022-11-29T01:54:25.314Z,96.18
2022-11-29T01:56:52.827Z,91.13
2022-11-29T01:59:23.256Z,87.93
2022-11-29T02:01:49.881Z,122.88
2022-11-29T02:04:18.397Z,120.83
2022-11-29T02:06:46.376Z,105.38
2022-11-29T02:09:23.505Z,80.50
2022-11-29T02:12:17.017Z,64.40
2022-11-29T02:15:07.194Z,115.60
2022-11-29T02:17:51.906Z,166.43
2022-11-29T02:20:18.846Z,81.60
2022-11-29T02:23:04.602Z,105.80
2022-11-29T02:25:43.036Z,77.05
2022-11-29T02:28:48.301Z,82.10
2022-11-29T02:31:30.374Z,98.90
2022-11-29T02:34:05.692Z,173.68
2022-11-29T02:37:08.556Z,203.02
2022-11-29T02:39:51.944Z,81.32
2022-11-29T02:42:55.662Z,103.45
2022-11-29T02:45:22.854Z,70.17
2022-11-29T02:48:01.566Z,74.57
2022-11-29T02:50:56.437Z,99.35
2022-11-29T02:53:53.357Z,67.25
2022-11-29T02:56:28.750Z,216.63
2022-11-29T02:59:20.526Z,158.73
2022-11-29T03:02:02.522Z,140.20
2022-11-29T03:04:39.692Z,174.18
2022-11-29T03:07:26.957Z,181.00
2022-11-29T03:10:17.956Z,150.07
2022-11-29T03:12:50.913Z,90.67
2022-11-29T03:15:41.222Z,169.30
2022-11-29T03:18:31.335Z,162.88
2022-11-29T03:21:19.534Z,229.60
2022-11-29T03:23:54.746Z,181.48
2022-11-29T03:26:31.810Z,247.57
2022-11-29T03:29:09.352Z,268.73
2022-11-29T03:31:38.961Z,220.82
2022-11-29T03:34:26.709Z,177.88
2022-11-29T03:36:59.777Z,206.55
2022-11-29T03:40:04.287Z,141.93
2022-11-29T03:42:52.955Z,215.02
2022-11-29T03:45:29.770Z,200.23
2022-11-29T03:48:21.673Z,89.40
2022-11-29T03:50:59.460Z,172.93
2022-11-29T03:53:33.233Z,95.53
2022-11-29T03:56:21.314Z,234.60
2022-11-29T03:59:01.453Z,182.32
2022-11-29T04:01:43.869Z,183.90
2022-11-29T04:04:22.220Z,133.40
2022-11-29T04:07:03.893Z,175.40
2022-11-29T04:09:53.649Z,91.00
2022-11-29T04:12:57.437Z,399.33
2022-11-29T04:15:35.726Z,194.10
2022-11-29T04:18:14.224Z,222.02
2022-11-29T04:21:05.474Z,66.73
2022-11-29T04:23:56.885Z,99.75
2022-11-29T04:26:57.790Z,84.43
2022-11-29T04:30:01.071Z,157.02
2022-11-29T04:32:46.577Z,298.13
2022-11-29T04:35:54.619Z,96.50
2022-11-29T04:38:42.473Z,140.93
2022-11-29T04:41:40.746Z,255.07
2022-11-29T04:44:30.221Z,199.77
2022-11-29T04:46:56.732Z,72.95
2022-11-29T04:49:50.644Z,133.80
2022-11-29T04:52:39.314Z,165.48
2022-11-29T04:55:26.222Z,101.35
2022-11-29T04:58:20.619Z,105.00
2022-11-29T05:01:13.767Z,169.70
2022-11-29T05:03:46.625Z,91.27
2022-11-29T05:06:25.429Z,136.23
2022-11-29T05:09:49.469Z,83.50
2022-11-29T05:12:36.367Z,114.63
2022-11-29T05:15:50.923Z,193.00
2022-11-29T05:18:41.938Z,65.27
2022-11-29T05:21:23.551Z,171.50
2022-11-29T05:24:24.922Z,96.63
2022-11-29T05:27:03.512Z,119.85
2022-11-29T05:29:35.387Z,189.95
2022-11-29T05:32:07.946Z,51.60
2022-11-29T05:35:19.384Z,188.95
2022-11-29T05:37:49.045Z,85.35
2022-11-29T05:40:40.518Z,99.28
2022-11-29T05:43:15.206Z,152.00
2022-11-29T05:45:56.302Z,155.07
2022-11-29T05:49:11.964Z,176.27
2022-11-29T05:51:57.773Z,89.00
2022-11-29T05:54:28.001Z,138.98
2022-11-29T05:57:14.448Z,111.95
2022-11-29T05:59:42.765Z,54.00
2022-11-29T06:02:15.386Z,87.70
2022-11-29T06:05:09.454Z,211.32
2022-11-29T06:08:23.212Z,88.18
2022-11-29T06:11:15.834Z,85.78
2022-11-29T06:13:56.025Z,94.63
2022-11-29T06:16:39.124Z,51.15
2022-11-29T06:19:29.321Z,399.88
2022-11-29T06:22:31.043Z,495.80
2022-11-29T06:25:18.487Z,100.53
2022-11-29T06:27:54.375Z,63.10
2022-11-29T06:30:27.611Z,50.03
2022-11-29T06:33:02.284Z,259.65
2022-11-29T06:35:46.317Z,418.27
2022-11-29T06:38:21.954Z,507.60
2022-11-29T06:40:49.862Z,106.30
2022-11-29T06:43:17.686Z,72.95
2022-11-29T06:46:00.625Z,92.32
2022-11-29T06:48:38.925Z,117.45
2022-11-29T06:51:05.676Z,123.30
2022-11-29T06:53:51.176Z,95.30
2022-11-29T06:56:41.457Z,76.80
2022-11-29T06:59:37.817Z,86.95
2022-11-29T07:02:16.588Z,129.93
2022-11-29T07:05:02.440Z,81.13
2022-11-29T07:07:29.361Z,182.13
2022-11-29T07:10:00.264Z,45.17
2022-11-29T07:12:27.277Z,139.32
2022-11-29T07:14:54.213Z,72.65
2022-11-29T07:17:48.101Z,105.43
2022-11-29T07:20:44.681Z,61.47
2022-11-29T07:23:31.510Z,51.30
2022-11-29T07:26:09.618Z,177.63
2022-11-29T07:28:46.486Z,105.53
2022-11-29T07:31:37.952Z,104.78
2022-11-29T07:34:04.552Z,105.73
2022-11-29T07:36:53.095Z,130.85
2022-11-29T07:39:43.658Z,49.67
2022-11-29T07:42:29.421Z,125.50
2022-11-29T07:45:04.998Z,106.22
2022-11-29T07:47:35.710Z,133.20
2022-11-29T07:50:03.381Z,73.38
2022-11-29T07:52:30.041Z,50.63
2022-11-29T07:54:56.677Z,44.63
2022-11-29T07:57:23.313Z,82.85
2022-11-29T07:59:49.906Z,44.57
2022-11-29T08:02:30.087Z,40.33
2022-11-29T08:04:56.956Z,53.30
2022-11-29T08:07:23.802Z,35.47
2022-11-29T08:09:50.513Z,33.88
2022-11-29T08:12:17.093Z,44.00
2022-11-29T08:14:44.120Z,128.00
2022-11-29T08:17:10.906Z,88.90
2022-11-29T08:19:37.491Z,58.13
2022-11-29T08:22:04.113Z,50.80
2022-11-29T08:24:31.165Z,47.23
2022-11-29T08:26:57.797Z,56.65
2022-11-29T08:29:25.175Z,40.80
2022-11-29T08:31:54.048Z,43.13
2022-11-29T08:34:21.948Z,51.13
2022-11-29T08:36:49.737Z,88.30
2022-11-29T08:39:16.741Z,42.47
2022-11-29T08:41:43.674Z,30.35
2022-11-29T08:44:10.307Z,46.63
2022-11-29T08:46:55.427Z,36.58
2022-11-29T08:49:21.980Z,44.20
2022-11-29T08:51:50.734Z,44.28
2022-11-29T08:54:17.291Z,73.25
2022-11-29T08:59:30.497Z,66.78
2022-11-29T09:01:57.077Z,47.87
2022-11-29T09:04:23.663Z,38.72
2022-11-29T09:06:50.326Z,43.55
2022-11-29T09:09:17.727Z,55.60
2022-11-29T09:11:49.111Z,46.22
2022-11-29T09:14:17.485Z,53.87
2022-11-29T09:16:44.103Z,59.42
2022-11-29T09:19:13.652Z,188.55
2022-11-29T09:21:40.403Z,226.75
2022-11-29T09:24:07.921Z,76.28
2022-11-29T09:26:36.686Z,98.23
2022-11-29T09:29:05.791Z,282.20
2022-11-29T09:31:33.738Z,73.07
2022-11-29T09:34:00.930Z,80.13
2022-11-29T09:36:29.872Z,78.25
2022-11-29T09:38:57.695Z,51.93
2022-11-29T09:41:49.338Z,116.78
2022-11-29T09:44:36.714Z,130.20
2022-11-29T09:47:37.798Z,110.13
2022-11-29T09:50:28.943Z,66.18
2022-11-29T09:53:17.567Z,44.30
2022-11-29T09:56:02.543Z,37.90
2022-11-29T09:58:38.085Z,131.63
2022-11-29T10:01:10.717Z,112.72
2022-11-29T10:03:45.129Z,82.65
2022-11-29T10:06:40.261Z,19.93
2022-11-29T10:09:22.639Z,98.20
2022-11-29T10:12:19.804Z,31.90
2022-11-29T10:14:55.705Z,111.22
2022-11-29T10:17:39.829Z,131.88
2022-11-29T10:20:15.426Z,35.37
2022-11-29T10:22:59.284Z,42.70
2022-11-29T10:25:35.822Z,32.42
2022-11-29T10:28:04.759Z,38.58
2022-11-29T10:30:34.097Z,84.22
2022-11-29T10:33:01.180Z,130.57
2022-11-29T10:35:29.362Z,100.45
2022-11-29T10:38:29.649Z,109.20
2022-11-29T10:40:52.835Z,118.28
2022-11-29T10:43:19.738Z,45.67
2022-11-29T10:45:50.463Z,33.33
2022-11-29T10:48:19.792Z,85.00
2022-11-29T10:50:48.846Z,57.90
2022-11-29T10:53:35.823Z,120.70
2022-11-29T10:56:09.477Z,92.60
2022-11-29T10:58:36.470Z,40.73
2022-11-29T11:01:07.801Z,50.13
2022-11-29T11:03:52.957Z,118.45
2022-11-29T11:06:19.806Z,71.65
2022-11-29T11:08:51.097Z,96.07
2022-11-29T11:11:28.093Z,93.10
2022-11-29T11:14:06.478Z,59.00
2022-11-29T11:16:37.298Z,78.45
2022-11-29T11:19:27.782Z,70.07
2022-11-29T11:21:56.366Z,47.97
2022-11-29T11:24:38.320Z,34.43
2022-11-29T11:27:04.986Z,29.02
2022-11-29T11:29:42.205Z,40.47
2022-11-29T11:32:19.260Z,68.80
2022-11-29T11:34:51.297Z,50.90
2022-11-29T11:37:35.773Z,32.33
2022-11-29T11:40:29.311Z,44.38
2022-11-29T11:42:59.250Z,37.42
2022-11-29T11:45:32.923Z,31.27
2022-11-29T11:48:14.508Z,28.65
2022-11-29T11:50:44.904Z,34.53
2022-11-29T11:53:36.285Z,34.33
2022-11-29T11:56:13.122Z,41.30
2022-11-29T11:58:51.482Z,33.20
2022-11-29T12:01:35.962Z,32.42
2022-11-29T12:04:20.281Z,30.93
2022-11-29T12:06:52.645Z,30.35
2022-11-29T12:09:25.326Z,33.42
2022-11-29T12:12:10.811Z,35.65
2022-11-29T12:14:57.682Z,31.92
2022-11-29T12:17:38.212Z,29.57
2022-11-29T12:20:43.153Z,35.17
2022-11-29T12:23:12.677Z,30.73
2022-11-29T12:25:48.740Z,29.60
2022-11-29T12:28:20.640Z,32.83
2022-11-29T12:31:35.718Z,28.40
2022-11-29T12:34:07.906Z,34.08
2022-11-29T12:36:53.984Z,27.90
2022-11-29T12:39:26.574Z,28.33
2022-11-29T12:42:19.430Z,33.55
2022-11-29T12:45:00.985Z,35.17
2022-11-29T12:47:55.309Z,34.10
2022-11-29T12:50:45.496Z,26.05
2022-11-29T12:53:20.146Z,31.83
2022-11-29T12:55:57.045Z,28.08
2022-11-29T12:58:33.111Z,28.27
2022-11-29T13:01:18.602Z,26.63
2022-11-29T13:04:09.485Z,32.20
2022-11-29T13:07:04.722Z,25.83
2022-11-29T13:10:05.033Z,28.98
2022-11-29T13:12:40.745Z,32.30
2022-11-29T13:15:16.437Z,24.58
2022-11-29T13:18:11.166Z,35.03
2022-11-29T13:20:58.202Z,24.17
2022-11-29T13:24:00.701Z,27.92
2022-11-29T13:26:27.327Z,27.60
2022-11-29T13:28:54.383Z,26.10
2022-11-29T13:31:23.467Z,26.45
2022-11-29T13:33:57.198Z,29.67
2022-11-29T13:36:42.594Z,25.58
2022-11-29T13:39:27.967Z,25.20
2022-11-29T13:42:12.597Z,30.33
2022-11-29T13:45:17.305Z,28.83
2022-11-29T13:47:55.588Z,27.17
2022-11-29T13:50:44.896Z,28.88
2022-11-29T13:53:23.513Z,23.93
2022-11-29T13:56:02.345Z,24.67
2022-11-29T13:58:28.951Z,25.85
2022-11-29T14:01:05.918Z,31.33
2022-11-29T14:04:02.321Z,31.38
2022-11-29T14:06:37.218Z,21.97
2022-11-29T14:09:20.577Z,27.80
2022-11-29T14:11:52.285Z,28.10
2022-11-29T14:14:32.285Z,28.35
2022-11-29T14:17:01.814Z,23.58
2022-11-29T14:19:36.624Z,28.20
2022-11-29T14:22:05.299Z,27.77
2022-11-29T14:24:37.979Z,21.45
2022-11-29T14:27:08.121Z,25.40
2022-11-29T14:29:49.901Z,24.42
2022-11-29T14:32:33.302Z,21.70
2022-11-29T14:35:12.184Z,26.98
2022-11-29T14:38:03.460Z,29.73
2022-11-29T14:40:42.213Z,22.58
2022-11-29T14:43:30.769Z,26.02
2022-11-29T14:46:30.360Z,25.07
2022-11-29T14:48:56.923Z,30.63
2022-11-29T14:51:26.518Z,26.23
2022-11-29T14:54:16.354Z,31.55
2022-11-29T14:56:44.913Z,31.17
2022-11-29T14:59:42.754Z,28.00
2022-11-29T15:02:33.628Z,28.23
2022-11-29T15:05:35.951Z,29.25
2022-11-29T15:08:32.009Z,23.67
2022-11-29T15:11:27.050Z,27.50
2022-11-29T15:14:07.332Z,25.73
2022-11-29T15:16:55.562Z,24.50
2022-11-29T15:19:52.653Z,30.52
2022-11-29T15:22:25.241Z,21.38
2022-11-29T15:24:53.016Z,23.85
2022-11-29T15:27:20.096Z,27.43
2022-11-29T15:29:48.273Z,25.92
2022-11-29T15:32:27.216Z,27.80
2022-11-29T15:34:56.079Z,24.05
2022-11-29T15:37:23.875Z,28.95
2022-11-29T15:40:12.469Z,25.30
2022-11-29T15:43:01.886Z,27.80
2022-11-29T15:45:31.638Z,26.67
2022-11-29T15:48:18.197Z,29.73
2022-11-29T15:51:03.020Z,34.58
2022-11-29T15:53:48.293Z,38.90
2022-11-29T15:56:39.567Z,36.15
2022-11-29T15:59:13.517Z,38.90
2022-11-29T16:01:42.503Z,33.20
2022-11-29T16:04:18.873Z,27.77
2022-11-29T16:06:47.301Z,29.73
2022-11-29T16:09:18.771Z,27.08
2022-11-29T16:11:48.131Z,32.78
2022-11-29T16:14:22.318Z,33.63
2022-11-29T16:16:52.468Z,29.40
2022-11-29T16:19:21.966Z,33.57
2022-11-29T16:22:11.245Z,48.95
2022-11-29T16:24:40.095Z,28.83
2022-11-29T16:27:07.967Z,40.08
2022-11-29T16:29:37.525Z,40.30
2022-11-29T16:32:33.591Z,46.87
2022-11-29T16:35:27.993Z,43.38
2022-11-29T16:37:55.201Z,50.08
2022-11-29T16:40:30.714Z,44.58
2022-11-29T16:43:03.431Z,48.25
2022-11-29T16:45:34.647Z,48.70
2022-11-29T16:48:02.718Z,40.53
2022-11-29T16:50:31.178Z,34.65
2022-11-29T16:53:35.067Z,34.17
2022-11-29T16:56:02.359Z,40.78
2022-11-29T16:58:28.999Z,43.93
2022-11-29T17:00:55.706Z,44.80
2022-11-29T17:03:22.594Z,40.28
2022-11-29T17:05:49.849Z,32.67
2022-11-29T17:08:16.442Z,52.22
2022-11-29T17:10:43.066Z,36.03
2022-11-29T17:13:11.041Z,55.95
2022-11-29T17:15:37.681Z,27.77
2022-11-29T17:18:04.366Z,38.30
2022-11-29T17:20:31.052Z,36.88
2022-11-29T17:22:57.662Z,25.00
2022-11-29T17:25:24.221Z,28.30
2022-11-29T17:27:50.893Z,44.78
2022-11-29T17:30:17.787Z,71.72
2022-11-29T17:32:44.378Z,41.35
2022-11-29T17:35:10.960Z,30.87
2022-11-29T17:37:37.560Z,28.20
2022-11-29T17:40:04.610Z,30.80
2022-11-29T17:42:31.232Z,30.02
2022-11-29T17:44:57.789Z,24.63
2022-11-29T17:47:24.329Z,32.37
2022-11-29T17:49:50.872Z,32.78
2022-11-29T17:52:17.618Z,31.40
2022-11-29T17:54:44.304Z,28.52
2022-11-29T17:57:10.902Z,25.95
2022-11-29T17:59:37.498Z,24.70
2022-11-29T18:02:04.290Z,29.85
2022-11-29T18:04:30.999Z,25.77
2022-11-29T18:06:57.759Z,24.40
2022-11-29T18:09:24.538Z,28.73
2022-11-29T18:11:52.322Z,25.40
2022-11-29T18:14:23.601Z,34.22
2022-11-29T18:16:51.076Z,32.17
2022-11-29T18:19:20.897Z,26.27
2022-11-29T18:21:48.875Z,27.27
2022-11-29T18:24:15.514Z,24.83
2022-11-29T18:26:42.555Z,27.63
2022-11-29T18:29:09.753Z,20.98
2022-11-29T18:31:42.513Z,21.92
2022-11-29T18:34:10.605Z,27.75
2022-11-29T18:36:43.327Z,21.63
2022-11-29T18:39:14.085Z,20.50
2022-11-29T18:41:42.869Z,20.55
2022-11-29T18:44:11.836Z,21.73
2022-11-29T18:46:39.805Z,22.35
2022-11-29T18:49:08.228Z,21.20
2022-11-29T18:51:36.516Z,20.60
2022-11-29T18:54:03.568Z,21.55
2022-11-29T18:56:32.753Z,19.48
2022-11-29T18:59:02.117Z,20.42
2022-11-29T19:01:30.721Z,25.87
2022-11-29T19:03:59.583Z,21.77
2022-11-29T19:06:38.581Z,23.73
2022-11-29T19:09:08.167Z,19.73
2022-11-29T19:11:34.936Z,21.45
2022-11-29T19:14:04.833Z,30.23
2022-11-29T19:16:34.090Z,19.00
2022-11-29T19:19:01.512Z,21.27
2022-11-29T19:21:31.693Z,16.17
2022-11-29T19:24:00.956Z,16.73
2022-11-29T19:26:29.827Z,25.03
2022-11-29T19:28:57.190Z,22.48
2022-11-29T19:31:26.897Z,19.42
2022-11-29T19:33:54.678Z,25.95
2022-11-29T19:36:31.866Z,19.65
2022-11-29T19:39:01.052Z,19.80
2022-11-29T19:41:30.643Z,20.48
2022-11-29T19:43:59.698Z,19.70
2022-11-29T19:46:29.158Z,20.80
2022-11-29T19:48:57.384Z,17.80
2022-11-29T19:51:25.384Z,17.10
2022-11-29T19:53:54.275Z,20.52
2022-11-29T19:56:21.482Z,14.52
2022-11-29T19:58:48.114Z,21.95
2022-11-29T20:01:17.602Z,21.42
2022-11-29T20:03:47.053Z,21.43
2022-11-29T20:06:13.951Z,16.63
2022-11-29T20:08:41.428Z,14.90
2022-11-29T20:11:10.375Z,19.98
2022-11-29T20:13:38.270Z,20.80
2022-11-29T20:16:10.782Z,18.33
2022-11-29T20:18:39.506Z,18.25
2022-11-29T20:21:14.938Z,21.67
2022-11-29T20:23:42.237Z,15.23
2022-11-29T20:26:17.354Z,20.92
2022-11-29T20:28:44.637Z,15.67
2022-11-29T20:31:16.994Z,22.77
2022-11-29T20:33:45.563Z,25.02
2022-11-29T20:36:20.414Z,20.13
2022-11-29T20:38:57.206Z,18.25
2022-11-29T20:41:50.840Z,18.77
2022-11-29T20:44:21.693Z,16.77
2022-11-29T20:46:48.552Z,22.05
2022-11-29T20:49:17.175Z,14.90
2022-11-29T20:51:55.708Z,21.63
2022-11-29T20:54:22.342Z,20.03
2022-11-29T20:56:48.977Z,20.77
2022-11-29T20:59:15.562Z,28.15
2022-11-29T21:01:42.338Z,16.10
2022-11-29T21:04:08.980Z,19.58
2022-11-29T21:06:39.308Z,24.23
2022-11-29T21:09:06.084Z,16.83
2022-11-29T21:11:33.047Z,19.92
2022-11-29T21:14:03.702Z,18.88
2022-11-29T21:16:31.746Z,20.55
2022-11-29T21:19:01.138Z,20.13
2022-11-29T21:21:36.460Z,16.48
2022-11-29T21:24:05.124Z,15.48
2022-11-29T21:26:41.716Z,13.38
2022-11-29T21:29:24.459Z,19.08
2022-11-29T21:31:53.459Z,22.27
2022-11-29T21:34:21.269Z,18.73
2022-11-29T21:36:55.814Z,15.13
2022-11-29T21:39:24.376Z,16.73
2022-11-29T21:41:50.910Z,16.73
2022-11-29T21:44:17.457Z,14.23
2022-11-29T21:46:44.035Z,19.92
2022-11-29T21:49:10.705Z,18.33
2022-11-29T21:51:37.323Z,17.42
2022-11-29T21:54:04.030Z,22.88
2022-11-29T21:56:31.094Z,15.90
2022-11-29T21:58:57.683Z,13.52
2022-11-29T22:01:24.381Z,22.17
2022-11-29T22:03:53.306Z,19.48
2022-11-29T22:06:20.430Z,19.33
2022-11-29T22:08:48.085Z,26.30
2022-11-29T22:11:17.049Z,22.33
2022-11-29T22:14:02.949Z,21.00
2022-11-29T22:16:29.991Z,29.15
2022-11-29T22:18:56.758Z,28.55
2022-11-29T22:21:23.412Z,36.60
2022-11-29T22:23:51.509Z,22.70
2022-11-29T22:26:18.055Z,21.63
2022-11-29T22:28:44.637Z,19.85
2022-11-29T22:31:12.469Z,19.90
2022-11-29T22:33:39.310Z,17.73
2022-11-29T22:36:11.471Z,19.25
2022-11-29T22:38:39.032Z,18.90
2022-11-29T22:41:08.285Z,28.20
2022-11-29T22:43:35.309Z,17.10
2022-11-29T22:46:09.302Z,23.43
2022-11-29T22:48:38.975Z,31.73
2022-11-29T22:51:11.774Z,24.80
2022-11-29T22:53:40.153Z,26.95
2022-11-29T22:56:09.191Z,20.30
2022-11-29T22:58:36.033Z,27.50
2022-11-29T23:01:16.452Z,24.15
2022-11-29T23:03:54.197Z,22.73
2022-11-29T23:06:25.350Z,29.23
2022-11-29T23:08:54.096Z,23.10
2022-11-29T23:11:24.227Z,22.20
2022-11-29T23:13:51.049Z,20.90
2022-11-29T23:16:20.888Z,28.52
2022-11-29T23:18:47.916Z,29.67
2022-11-29T23:21:20.722Z,29.50
2022-11-29T23:23:52.927Z,33.93
2022-11-29T23:26:27.721Z,29.63
2022-11-29T23:28:55.258Z,27.98
2022-11-29T23:31:23.334Z,25.17
2022-11-29T23:33:50.628Z,25.98
2022-11-29T23:36:17.797Z,26.00
2022-11-29T23:38:44.927Z,25.88
2022-11-29T23:41:13.100Z,26.58
2022-11-29T23:43:40.981Z,26.77
2022-11-29T23:46:10.284Z,26.98
2022-11-29T23:48:36.967Z,26.53
2022-11-29T23:51:03.789Z,27.63
2022-11-29T23:53:30.701Z,27.17
2022-11-29T23:56:12.843Z,27.88
2022-11-29T23:58:39.701Z,27.40
